sensor_id;sensor_type;location;lat;lon;timestamp;P1;durP1;ratioP1;P2;durP2;ratioP2
51578;SDS011;47998;53.242;6.386;2022-09-21T00:02:07;11.18;;;2.90;;
51578;SDS011;47998;53.242;6.386;2022-09-21T00:04:33;78.90;;;5.78;;
51578;SDS011;47998;53.242;6.386;2022-09-21T00:06:59;18.55;;;3.25;;
51578;SDS011;47998;53.242;6.386;2022-09-21T00:09:25;13.90;;;3.85;;
51578;SDS011;47998;53.242;6.386;2022-09-21T00:11:51;19.42;;;4.20;;
51578;SDS011;47998;53.242;6.386;2022-09-21T00:14:17;43.08;;;5.90;;
51578;SDS011;47998;53.242;6.386;2022-09-21T00:16:43;5.80;;;3.67;;
51578;SDS011;47998;53.242;6.386;2022-09-21T00:19:09;5.68;;;3.70;;
51578;SDS011;47998;53.242;6.386;2022-09-21T00:21:36;7.22;;;3.95;;
51578;SDS011;47998;53.242;6.386;2022-09-21T00:24:02;4.65;;;3.28;;
51578;SDS011;47998;53.242;6.386;2022-09-21T00:26:29;8.40;;;3.70;;
51578;SDS011;47998;53.242;6.386;2022-09-21T00:28:56;11.43;;;3.85;;
51578;SDS011;47998;53.242;6.386;2022-09-21T00:31:24;6.05;;;4.28;;
51578;SDS011;47998;53.242;6.386;2022-09-21T00:33:52;7.97;;;4.25;;
51578;SDS011;47998;53.242;6.386;2022-09-21T00:36:19;12.07;;;4.60;;
51578;SDS011;47998;53.242;6.386;2022-09-21T00:38:49;14.77;;;6.50;;
51578;SDS011;47998;53.242;6.386;2022-09-21T00:41:16;8.52;;;4.95;;
51578;SDS011;47998;53.242;6.386;2022-09-21T00:46:46;6.82;;;4.18;;
51578;SDS011;47998;53.242;6.386;2022-09-21T00:49:14;6.05;;;4.32;;
51578;SDS011;47998;53.242;6.386;2022-09-21T00:51:41;5.53;;;4.47;;
51578;SDS011;47998;53.242;6.386;2022-09-21T00:54:08;15.55;;;5.93;;
51578;SDS011;47998;53.242;6.386;2022-09-21T00:56:39;11.43;;;7.57;;
51578;SDS011;47998;53.242;6.386;2022-09-21T00:59:11;9.63;;;7.05;;
51578;SDS011;47998;53.242;6.386;2022-09-21T01:01:39;9.30;;;4.63;;
51578;SDS011;47998;53.242;6.386;2022-09-21T01:04:07;10.85;;;7.30;;
51578;SDS011;47998;53.242;6.386;2022-09-21T01:06:34;8.27;;;4.85;;
51578;SDS011;47998;53.242;6.386;2022-09-21T01:09:02;7.57;;;5.22;;
51578;SDS011;47998;53.242;6.386;2022-09-21T01:17:23;10.23;;;8.18;;
51578;SDS011;47998;53.242;6.386;2022-09-21T01:31:30;15.95;;;11.48;;
51578;SDS011;47998;53.242;6.386;2022-09-21T01:34:16;17.00;;;10.73;;
51578;SDS011;47998;53.242;6.386;2022-09-21T01:36:48;21.00;;;13.07;;
51578;SDS011;47998;53.242;6.386;2022-09-21T01:39:17;17.02;;;12.63;;
51578;SDS011;47998;53.242;6.386;2022-09-21T01:41:45;37.45;;;14.25;;
51578;SDS011;47998;53.242;6.386;2022-09-21T01:44:17;23.23;;;14.75;;
51578;SDS011;47998;53.242;6.386;2022-09-21T01:46:47;17.20;;;10.00;;
51578;SDS011;47998;53.242;6.386;2022-09-21T01:49:16;19.85;;;12.77;;
51578;SDS011;47998;53.242;6.386;2022-09-21T01:52:16;24.35;;;15.98;;
51578;SDS011;47998;53.242;6.386;2022-09-21T01:54:46;19.85;;;12.30;;
51578;SDS011;47998;53.242;6.386;2022-09-21T02:02:49;29.63;;;16.90;;
51578;SDS011;47998;53.242;6.386;2022-09-21T02:05:29;31.05;;;17.10;;
51578;SDS011;47998;53.242;6.386;2022-09-21T02:07:55;25.10;;;15.68;;
51578;SDS011;47998;53.242;6.386;2022-09-21T02:10:31;30.95;;;18.40;;
51578;SDS011;47998;53.242;6.386;2022-09-21T02:13:06;28.60;;;16.57;;
51578;SDS011;47998;53.242;6.386;2022-09-21T02:15:49;20.75;;;13.10;;
51578;SDS011;47998;53.242;6.386;2022-09-21T02:24:04;23.30;;;13.40;;
51578;SDS011;47998;53.242;6.386;2022-09-21T02:35:30;17.70;;;12.60;;
51578;SDS011;47998;53.242;6.386;2022-09-21T02:40:35;27.67;;;13.57;;
51578;SDS011;47998;53.242;6.386;2022-09-21T02:43:13;18.35;;;12.27;;
51578;SDS011;47998;53.242;6.386;2022-09-21T02:45:52;18.35;;;12.32;;
51578;SDS011;47998;53.242;6.386;2022-09-21T02:48:34;20.73;;;12.65;;
51578;SDS011;47998;53.242;6.386;2022-09-21T02:51:15;20.88;;;11.50;;
51578;SDS011;47998;53.242;6.386;2022-09-21T02:53:47;20.35;;;12.18;;
51578;SDS011;47998;53.242;6.386;2022-09-21T02:56:16;17.77;;;11.27;;
51578;SDS011;47998;53.242;6.386;2022-09-21T02:58:44;20.25;;;11.98;;
51578;SDS011;47998;53.242;6.386;2022-09-21T03:01:13;19.10;;;11.07;;
51578;SDS011;47998;53.242;6.386;2022-09-21T03:03:41;18.85;;;12.07;;
51578;SDS011;47998;53.242;6.386;2022-09-21T03:06:06;19.63;;;10.82;;
51578;SDS011;47998;53.242;6.386;2022-09-21T03:08:32;21.55;;;13.88;;
51578;SDS011;47998;53.242;6.386;2022-09-21T03:10:58;24.42;;;15.60;;
51578;SDS011;47998;53.242;6.386;2022-09-21T03:13:24;18.63;;;12.10;;
51578;SDS011;47998;53.242;6.386;2022-09-21T03:15:57;26.08;;;14.38;;
51578;SDS011;47998;53.242;6.386;2022-09-21T03:18:24;18.88;;;13.73;;
51578;SDS011;47998;53.242;6.386;2022-09-21T03:20:50;19.73;;;12.82;;
51578;SDS011;47998;53.242;6.386;2022-09-21T03:23:15;20.30;;;12.93;;
51578;SDS011;47998;53.242;6.386;2022-09-21T03:25:44;18.13;;;13.40;;
51578;SDS011;47998;53.242;6.386;2022-09-21T03:28:10;24.02;;;14.32;;
51578;SDS011;47998;53.242;6.386;2022-09-21T03:30:37;17.63;;;11.65;;
51578;SDS011;47998;53.242;6.386;2022-09-21T03:33:03;20.48;;;12.07;;
51578;SDS011;47998;53.242;6.386;2022-09-21T03:35:30;19.67;;;14.30;;
51578;SDS011;47998;53.242;6.386;2022-09-21T03:37:58;15.25;;;10.52;;
51578;SDS011;47998;53.242;6.386;2022-09-21T03:40:24;18.92;;;13.38;;
51578;SDS011;47998;53.242;6.386;2022-09-21T03:42:53;17.35;;;11.85;;
51578;SDS011;47998;53.242;6.386;2022-09-21T03:45:19;18.52;;;12.27;;
51578;SDS011;47998;53.242;6.386;2022-09-21T03:47:46;18.35;;;13.13;;
51578;SDS011;47998;53.242;6.386;2022-09-21T03:50:12;20.48;;;14.10;;
51578;SDS011;47998;53.242;6.386;2022-09-21T03:52:39;19.08;;;13.50;;
51578;SDS011;47998;53.242;6.386;2022-09-21T03:55:06;23.35;;;11.50;;
51578;SDS011;47998;53.242;6.386;2022-09-21T03:57:33;20.40;;;12.60;;
51578;SDS011;47998;53.242;6.386;2022-09-21T04:00:00;25.37;;;15.50;;
51578;SDS011;47998;53.242;6.386;2022-09-21T04:02:28;21.70;;;14.07;;
51578;SDS011;47998;53.242;6.386;2022-09-21T04:04:54;20.33;;;13.07;;
51578;SDS011;47998;53.242;6.386;2022-09-21T04:07:20;20.55;;;12.60;;
51578;SDS011;47998;53.242;6.386;2022-09-21T04:09:45;20.77;;;12.02;;
51578;SDS011;47998;53.242;6.386;2022-09-21T04:12:11;21.55;;;11.60;;
51578;SDS011;47998;53.242;6.386;2022-09-21T04:14:37;22.87;;;11.07;;
51578;SDS011;47998;53.242;6.386;2022-09-21T04:17:03;24.88;;;15.35;;
51578;SDS011;47998;53.242;6.386;2022-09-21T04:19:29;27.65;;;14.38;;
51578;SDS011;47998;53.242;6.386;2022-09-21T04:21:55;27.40;;;14.57;;
51578;SDS011;47998;53.242;6.386;2022-09-21T04:24:21;28.02;;;14.25;;
51578;SDS011;47998;53.242;6.386;2022-09-21T04:26:47;28.90;;;14.70;;
51578;SDS011;47998;53.242;6.386;2022-09-21T04:29:13;32.17;;;15.63;;
51578;SDS011;47998;53.242;6.386;2022-09-21T04:31:40;25.63;;;13.63;;
51578;SDS011;47998;53.242;6.386;2022-09-21T04:34:07;26.40;;;13.70;;
51578;SDS011;47998;53.242;6.386;2022-09-21T04:36:36;26.00;;;16.23;;
51578;SDS011;47998;53.242;6.386;2022-09-21T04:39:02;27.20;;;14.35;;
51578;SDS011;47998;53.242;6.386;2022-09-21T04:41:28;33.13;;;16.15;;
51578;SDS011;47998;53.242;6.386;2022-09-21T04:43:54;34.28;;;18.17;;
51578;SDS011;47998;53.242;6.386;2022-09-21T04:46:20;20.73;;;12.27;;
51578;SDS011;47998;53.242;6.386;2022-09-21T04:48:46;22.52;;;12.55;;
51578;SDS011;47998;53.242;6.386;2022-09-21T04:51:13;21.35;;;11.30;;
51578;SDS011;47998;53.242;6.386;2022-09-21T04:53:41;12.88;;;8.57;;
51578;SDS011;47998;53.242;6.386;2022-09-21T04:56:08;11.32;;;7.80;;
51578;SDS011;47998;53.242;6.386;2022-09-21T04:58:37;9.88;;;6.20;;
51578;SDS011;47998;53.242;6.386;2022-09-21T05:01:03;17.70;;;9.13;;
51578;SDS011;47998;53.242;6.386;2022-09-21T05:03:30;19.55;;;8.88;;
51578;SDS011;47998;53.242;6.386;2022-09-21T05:05:56;100.00;;;13.07;;
51578;SDS011;47998;53.242;6.386;2022-09-21T05:08:23;24.80;;;15.13;;
51578;SDS011;47998;53.242;6.386;2022-09-21T05:11:09;16.40;;;10.98;;
51578;SDS011;47998;53.242;6.386;2022-09-21T05:13:40;33.22;;;11.38;;
51578;SDS011;47998;53.242;6.386;2022-09-21T05:16:07;25.45;;;11.40;;
51578;SDS011;47998;53.242;6.386;2022-09-21T05:18:33;28.48;;;12.00;;
51578;SDS011;47998;53.242;6.386;2022-09-21T05:21:00;13.38;;;10.43;;
51578;SDS011;47998;53.242;6.386;2022-09-21T05:23:26;20.95;;;11.13;;
51578;SDS011;47998;53.242;6.386;2022-09-21T05:25:56;25.50;;;9.97;;
51578;SDS011;47998;53.242;6.386;2022-09-21T05:28:22;32.15;;;11.00;;
51578;SDS011;47998;53.242;6.386;2022-09-21T05:33:53;24.88;;;9.25;;
51578;SDS011;47998;53.242;6.386;2022-09-21T05:39:14;44.65;;;18.40;;
51578;SDS011;47998;53.242;6.386;2022-09-21T05:41:40;88.90;;;22.77;;
51578;SDS011;47998;53.242;6.386;2022-09-21T05:44:08;13.18;;;9.68;;
51578;SDS011;47998;53.242;6.386;2022-09-21T05:46:39;9.23;;;8.23;;
51578;SDS011;47998;53.242;6.386;2022-09-21T05:49:21;16.05;;;12.23;;
51578;SDS011;47998;53.242;6.386;2022-09-21T05:51:55;10.70;;;8.90;;
51578;SDS011;47998;53.242;6.386;2022-09-21T05:57:13;24.23;;;16.92;;
51578;SDS011;47998;53.242;6.386;2022-09-21T06:02:25;13.65;;;11.75;;
51578;SDS011;47998;53.242;6.386;2022-09-21T06:05:14;15.02;;;13.38;;
51578;SDS011;47998;53.242;6.386;2022-09-21T06:07:40;14.40;;;12.43;;
51578;SDS011;47998;53.242;6.386;2022-09-21T06:10:07;17.00;;;12.93;;
51578;SDS011;47998;53.242;6.386;2022-09-21T06:12:34;13.32;;;11.80;;
51578;SDS011;47998;53.242;6.386;2022-09-21T06:14:59;18.35;;;14.70;;
51578;SDS011;47998;53.242;6.386;2022-09-21T06:17:25;19.58;;;15.73;;
51578;SDS011;47998;53.242;6.386;2022-09-21T06:19:54;28.17;;;20.38;;
51578;SDS011;47998;53.242;6.386;2022-09-21T06:22:20;28.33;;;20.48;;
51578;SDS011;47998;53.242;6.386;2022-09-21T06:24:46;35.40;;;21.80;;
51578;SDS011;47998;53.242;6.386;2022-09-21T06:27:11;30.23;;;22.08;;
51578;SDS011;47998;53.242;6.386;2022-09-21T06:29:37;30.00;;;21.63;;
51578;SDS011;47998;53.242;6.386;2022-09-21T06:32:03;22.70;;;17.17;;
51578;SDS011;47998;53.242;6.386;2022-09-21T06:34:29;31.95;;;22.13;;
51578;SDS011;47998;53.242;6.386;2022-09-21T06:36:55;30.00;;;20.25;;
51578;SDS011;47998;53.242;6.386;2022-09-21T06:39:21;33.60;;;21.30;;
51578;SDS011;47998;53.242;6.386;2022-09-21T06:41:47;31.77;;;19.75;;
51578;SDS011;47998;53.242;6.386;2022-09-21T06:44:13;24.77;;;18.63;;
51578;SDS011;47998;53.242;6.386;2022-09-21T06:46:38;32.15;;;20.40;;
51578;SDS011;47998;53.242;6.386;2022-09-21T06:49:04;29.48;;;20.25;;
51578;SDS011;47998;53.242;6.386;2022-09-21T06:51:30;28.88;;;20.70;;
51578;SDS011;47998;53.242;6.386;2022-09-21T06:53:56;33.70;;;22.23;;
51578;SDS011;47998;53.242;6.386;2022-09-21T06:56:23;38.25;;;23.73;;
51578;SDS011;47998;53.242;6.386;2022-09-21T06:58:50;32.00;;;22.10;;
51578;SDS011;47998;53.242;6.386;2022-09-21T07:01:17;30.13;;;20.23;;
51578;SDS011;47998;53.242;6.386;2022-09-21T07:03:43;29.23;;;19.58;;
51578;SDS011;47998;53.242;6.386;2022-09-21T07:06:12;30.13;;;19.50;;
51578;SDS011;47998;53.242;6.386;2022-09-21T07:08:39;30.60;;;20.90;;
51578;SDS011;47998;53.242;6.386;2022-09-21T07:11:10;23.73;;;16.20;;
51578;SDS011;47998;53.242;6.386;2022-09-21T07:13:36;28.00;;;19.08;;
51578;SDS011;47998;53.242;6.386;2022-09-21T07:16:06;26.20;;;18.40;;
51578;SDS011;47998;53.242;6.386;2022-09-21T07:18:33;31.05;;;18.63;;
51578;SDS011;47998;53.242;6.386;2022-09-21T07:21:06;24.58;;;16.17;;
51578;SDS011;47998;53.242;6.386;2022-09-21T07:23:34;25.17;;;17.90;;
51578;SDS011;47998;53.242;6.386;2022-09-21T07:26:01;21.48;;;15.88;;
51578;SDS011;47998;53.242;6.386;2022-09-21T07:28:31;30.15;;;17.88;;
51578;SDS011;47998;53.242;6.386;2022-09-21T07:30:57;26.55;;;15.45;;
51578;SDS011;47998;53.242;6.386;2022-09-21T07:33:30;21.90;;;13.27;;
51578;SDS011;47998;53.242;6.386;2022-09-21T07:35:57;23.80;;;12.32;;
51578;SDS011;47998;53.242;6.386;2022-09-21T07:38:24;19.27;;;10.50;;
51578;SDS011;47998;53.242;6.386;2022-09-21T07:40:52;20.75;;;12.15;;
51578;SDS011;47998;53.242;6.386;2022-09-21T07:43:17;17.20;;;8.98;;
51578;SDS011;47998;53.242;6.386;2022-09-21T07:45:50;13.38;;;6.90;;
51578;SDS011;47998;53.242;6.386;2022-09-21T07:48:20;14.10;;;8.70;;
51578;SDS011;47998;53.242;6.386;2022-09-21T07:50:46;17.92;;;8.20;;
51578;SDS011;47998;53.242;6.386;2022-09-21T07:53:13;13.18;;;8.10;;
51578;SDS011;47998;53.242;6.386;2022-09-21T07:55:41;15.07;;;8.90;;
51578;SDS011;47998;53.242;6.386;2022-09-21T07:58:07;16.58;;;7.20;;
51578;SDS011;47998;53.242;6.386;2022-09-21T08:00:51;14.05;;;6.13;;
51578;SDS011;47998;53.242;6.386;2022-09-21T08:03:17;13.85;;;5.18;;
51578;SDS011;47998;53.242;6.386;2022-09-21T08:05:42;12.27;;;5.20;;
51578;SDS011;47998;53.242;6.386;2022-09-21T08:08:08;14.60;;;4.70;;
51578;SDS011;47998;53.242;6.386;2022-09-21T08:10:34;9.23;;;4.10;;
51578;SDS011;47998;53.242;6.386;2022-09-21T08:13:01;14.32;;;4.82;;
51578;SDS011;47998;53.242;6.386;2022-09-21T08:15:27;12.68;;;3.72;;
51578;SDS011;47998;53.242;6.386;2022-09-21T08:17:53;11.25;;;2.70;;
51578;SDS011;47998;53.242;6.386;2022-09-21T08:20:19;12.23;;;3.00;;
51578;SDS011;47998;53.242;6.386;2022-09-21T08:22:45;7.25;;;2.38;;
51578;SDS011;47998;53.242;6.386;2022-09-21T08:25:11;11.90;;;2.20;;
51578;SDS011;47998;53.242;6.386;2022-09-21T08:27:37;9.82;;;2.08;;
51578;SDS011;47998;53.242;6.386;2022-09-21T08:30:04;5.88;;;1.92;;
51578;SDS011;47998;53.242;6.386;2022-09-21T08:32:31;10.43;;;1.80;;
51578;SDS011;47998;53.242;6.386;2022-09-21T08:34:57;7.85;;;1.80;;
51578;SDS011;47998;53.242;6.386;2022-09-21T08:37:23;6.93;;;1.27;;
51578;SDS011;47998;53.242;6.386;2022-09-21T08:39:49;9.73;;;1.80;;
51578;SDS011;47998;53.242;6.386;2022-09-21T08:45:11;8.35;;;1.10;;
51578;SDS011;47998;53.242;6.386;2022-09-21T08:47:46;6.72;;;1.20;;
51578;SDS011;47998;53.242;6.386;2022-09-21T08:53:18;8.18;;;0.80;;
51578;SDS011;47998;53.242;6.386;2022-09-21T08:55:54;4.45;;;0.98;;
51578;SDS011;47998;53.242;6.386;2022-09-21T08:58:24;5.75;;;0.98;;
51578;SDS011;47998;53.242;6.386;2022-09-21T09:03:47;6.82;;;1.05;;
51578;SDS011;47998;53.242;6.386;2022-09-21T09:06:35;5.32;;;1.10;;
51578;SDS011;47998;53.242;6.386;2022-09-21T09:17:57;5.30;;;1.20;;
51578;SDS011;47998;53.242;6.386;2022-09-21T09:20:33;13.25;;;1.85;;
51578;SDS011;47998;53.242;6.386;2022-09-21T09:23:13;5.22;;;1.35;;
51578;SDS011;47998;53.242;6.386;2022-09-21T09:26:06;3.58;;;0.93;;
51578;SDS011;47998;53.242;6.386;2022-09-21T09:28:46;7.85;;;1.10;;
51578;SDS011;47998;53.242;6.386;2022-09-21T09:31:34;5.78;;;1.10;;
51578;SDS011;47998;53.242;6.386;2022-09-21T09:36:27;9.40;;;1.10;;
51578;SDS011;47998;53.242;6.386;2022-09-21T09:38:57;7.00;;;0.95;;
51578;SDS011;47998;53.242;6.386;2022-09-21T09:52:10;5.97;;;0.82;;
51578;SDS011;47998;53.242;6.386;2022-09-21T09:54:39;4.63;;;0.80;;
51578;SDS011;47998;53.242;6.386;2022-09-21T09:57:05;5.57;;;0.95;;
51578;SDS011;47998;53.242;6.386;2022-09-21T10:02:20;2.20;;;0.40;;
51578;SDS011;47998;53.242;6.386;2022-09-21T10:07:34;5.70;;;0.60;;
51578;SDS011;47998;53.242;6.386;2022-09-21T10:10:08;5.43;;;0.82;;
51578;SDS011;47998;53.242;6.386;2022-09-21T10:12:52;9.77;;;0.88;;
51578;SDS011;47998;53.242;6.386;2022-09-21T10:15:19;4.65;;;1.05;;
51578;SDS011;47998;53.242;6.386;2022-09-21T10:17:48;6.32;;;0.85;;
51578;SDS011;47998;53.242;6.386;2022-09-21T10:20:38;4.40;;;0.73;;
51578;SDS011;47998;53.242;6.386;2022-09-21T10:23:16;4.53;;;0.80;;
51578;SDS011;47998;53.242;6.386;2022-09-21T10:25:43;5.22;;;0.80;;
51578;SDS011;47998;53.242;6.386;2022-09-21T10:28:09;8.77;;;1.13;;
51578;SDS011;47998;53.242;6.386;2022-09-21T10:30:37;2.63;;;0.40;;
51578;SDS011;47998;53.242;6.386;2022-09-21T10:33:03;5.90;;;1.10;;
51578;SDS011;47998;53.242;6.386;2022-09-21T10:35:49;6.30;;;0.70;;
51578;SDS011;47998;53.242;6.386;2022-09-21T10:38:17;5.82;;;0.90;;
51578;SDS011;47998;53.242;6.386;2022-09-21T10:40:45;6.03;;;0.82;;
51578;SDS011;47998;53.242;6.386;2022-09-21T10:43:24;4.88;;;1.05;;
51578;SDS011;47998;53.242;6.386;2022-09-21T10:46:06;3.55;;;0.65;;
51578;SDS011;47998;53.242;6.386;2022-09-21T10:48:32;4.88;;;0.82;;
51578;SDS011;47998;53.242;6.386;2022-09-21T10:50:59;4.15;;;0.73;;
51578;SDS011;47998;53.242;6.386;2022-09-21T10:53:31;7.65;;;1.05;;
51578;SDS011;47998;53.242;6.386;2022-09-21T10:58:28;6.22;;;0.80;;
51578;SDS011;47998;53.242;6.386;2022-09-21T11:00:55;4.32;;;0.50;;
51578;SDS011;47998;53.242;6.386;2022-09-21T11:06:24;4.95;;;0.77;;
51578;SDS011;47998;53.242;6.386;2022-09-21T11:17:08;4.70;;;1.00;;
51578;SDS011;47998;53.242;6.386;2022-09-21T11:19:48;3.42;;;0.93;;
51578;SDS011;47998;53.242;6.386;2022-09-21T11:22:24;5.90;;;1.10;;
51578;SDS011;47998;53.242;6.386;2022-09-21T11:31:05;3.65;;;0.68;;
51578;SDS011;47998;53.242;6.386;2022-09-21T11:39:54;5.30;;;0.70;;
51578;SDS011;47998;53.242;6.386;2022-09-21T11:45:33;4.00;;;0.73;;
51578;SDS011;47998;53.242;6.386;2022-09-21T11:56:49;4.60;;;0.82;;
51578;SDS011;47998;53.242;6.386;2022-09-21T12:12:53;4.00;;;0.50;;
51578;SDS011;47998;53.242;6.386;2022-09-21T12:15:27;8.35;;;0.73;;
51578;SDS011;47998;53.242;6.386;2022-09-21T12:23:16;2.25;;;0.47;;
51578;SDS011;47998;53.242;6.386;2022-09-21T12:25:51;3.33;;;0.52;;
51578;SDS011;47998;53.242;6.386;2022-09-21T12:28:26;5.35;;;0.50;;
51578;SDS011;47998;53.242;6.386;2022-09-21T12:31:06;5.40;;;0.77;;
51578;SDS011;47998;53.242;6.386;2022-09-21T12:34:00;5.65;;;0.50;;
51578;SDS011;47998;53.242;6.386;2022-09-21T12:39:06;2.50;;;0.68;;
51578;SDS011;47998;53.242;6.386;2022-09-21T12:41:57;3.03;;;0.60;;
51578;SDS011;47998;53.242;6.386;2022-09-21T12:44:44;4.97;;;1.13;;
51578;SDS011;47998;53.242;6.386;2022-09-21T12:47:18;3.83;;;0.60;;
51578;SDS011;47998;53.242;6.386;2022-09-21T12:49:52;5.22;;;0.88;;
51578;SDS011;47998;53.242;6.386;2022-09-21T12:52:24;3.13;;;0.70;;
51578;SDS011;47998;53.242;6.386;2022-09-21T12:55:03;2.15;;;0.40;;
51578;SDS011;47998;53.242;6.386;2022-09-21T12:58:00;5.75;;;0.73;;
51578;SDS011;47998;53.242;6.386;2022-09-21T13:00:45;2.95;;;0.50;;
51578;SDS011;47998;53.242;6.386;2022-09-21T13:03:35;4.22;;;1.13;;
51578;SDS011;47998;53.242;6.386;2022-09-21T13:08:59;7.65;;;0.60;;
51578;SDS011;47998;53.242;6.386;2022-09-21T13:11:28;3.83;;;0.80;;
51578;SDS011;47998;53.242;6.386;2022-09-21T13:13:59;2.65;;;0.55;;
51578;SDS011;47998;53.242;6.386;2022-09-21T13:16:28;2.30;;;0.60;;
51578;SDS011;47998;53.242;6.386;2022-09-21T13:19:00;8.05;;;1.10;;
51578;SDS011;47998;53.242;6.386;2022-09-21T13:21:29;2.60;;;0.50;;
51578;SDS011;47998;53.242;6.386;2022-09-21T13:24:02;2.58;;;0.50;;
51578;SDS011;47998;53.242;6.386;2022-09-21T13:26:39;4.78;;;0.70;;
51578;SDS011;47998;53.242;6.386;2022-09-21T13:45:01;5.43;;;1.10;;
51578;SDS011;47998;53.242;6.386;2022-09-21T13:47:43;3.97;;;1.13;;
51578;SDS011;47998;53.242;6.386;2022-09-21T13:50:23;4.32;;;1.00;;
51578;SDS011;47998;53.242;6.386;2022-09-21T13:52:52;4.43;;;0.68;;
51578;SDS011;47998;53.242;6.386;2022-09-21T13:55:34;4.18;;;0.77;;
51578;SDS011;47998;53.242;6.386;2022-09-21T13:58:04;4.18;;;0.52;;
51578;SDS011;47998;53.242;6.386;2022-09-21T14:00:49;4.65;;;0.60;;
51578;SDS011;47998;53.242;6.386;2022-09-21T14:03:25;2.85;;;0.52;;
51578;SDS011;47998;53.242;6.386;2022-09-21T14:09:00;4.05;;;0.60;;
51578;SDS011;47998;53.242;6.386;2022-09-21T14:11:38;1.85;;;0.30;;
51578;SDS011;47998;53.242;6.386;2022-09-21T14:24:35;2.38;;;0.47;;
51578;SDS011;47998;53.242;6.386;2022-09-21T14:32:19;3.58;;;0.57;;
51578;SDS011;47998;53.242;6.386;2022-09-21T14:34:48;3.50;;;0.30;;
51578;SDS011;47998;53.242;6.386;2022-09-21T14:37:32;4.80;;;0.63;;
51578;SDS011;47998;53.242;6.386;2022-09-21T14:40:02;3.67;;;0.65;;
51578;SDS011;47998;53.242;6.386;2022-09-21T14:42:40;3.60;;;0.70;;
51578;SDS011;47998;53.242;6.386;2022-09-21T14:45:09;4.22;;;0.93;;
51578;SDS011;47998;53.242;6.386;2022-09-21T14:55:29;2.83;;;0.70;;
51578;SDS011;47998;53.242;6.386;2022-09-21T15:01:19;4.55;;;0.70;;
51578;SDS011;47998;53.242;6.386;2022-09-21T15:06:59;6.88;;;1.33;;
51578;SDS011;47998;53.242;6.386;2022-09-21T15:13:13;6.30;;;0.98;;
51578;SDS011;47998;53.242;6.386;2022-09-21T15:16:09;5.05;;;0.70;;
51578;SDS011;47998;53.242;6.386;2022-09-21T15:18:47;3.05;;;0.55;;
51578;SDS011;47998;53.242;6.386;2022-09-21T15:21:33;2.22;;;0.57;;
51578;SDS011;47998;53.242;6.386;2022-09-21T15:24:00;7.38;;;0.85;;
51578;SDS011;47998;53.242;6.386;2022-09-21T15:26:42;6.60;;;1.10;;
51578;SDS011;47998;53.242;6.386;2022-09-21T15:29:11;3.33;;;0.80;;
51578;SDS011;47998;53.242;6.386;2022-09-21T15:31:45;5.50;;;0.70;;
51578;SDS011;47998;53.242;6.386;2022-09-21T15:34:11;5.82;;;0.88;;
51578;SDS011;47998;53.242;6.386;2022-09-21T15:36:39;4.80;;;0.98;;
51578;SDS011;47998;53.242;6.386;2022-09-21T15:39:19;5.80;;;0.60;;
51578;SDS011;47998;53.242;6.386;2022-09-21T15:42:04;5.18;;;1.00;;
51578;SDS011;47998;53.242;6.386;2022-09-21T15:44:46;8.27;;;1.13;;
51578;SDS011;47998;53.242;6.386;2022-09-21T15:47:18;4.22;;;0.70;;
51578;SDS011;47998;53.242;6.386;2022-09-21T15:49:47;3.38;;;0.73;;
51578;SDS011;47998;53.242;6.386;2022-09-21T15:52:17;5.10;;;0.65;;
51578;SDS011;47998;53.242;6.386;2022-09-21T15:54:59;5.32;;;0.55;;
51578;SDS011;47998;53.242;6.386;2022-09-21T16:00:03;5.18;;;0.90;;
51578;SDS011;47998;53.242;6.386;2022-09-21T16:02:37;4.25;;;1.30;;
51578;SDS011;47998;53.242;6.386;2022-09-21T16:05:06;5.22;;;0.90;;
51578;SDS011;47998;53.242;6.386;2022-09-21T16:07:38;8.63;;;1.38;;
51578;SDS011;47998;53.242;6.386;2022-09-21T16:16:09;3.47;;;0.50;;
51578;SDS011;47998;53.242;6.386;2022-09-21T16:18:47;5.15;;;1.00;;
51578;SDS011;47998;53.242;6.386;2022-09-21T16:23:39;4.35;;;1.10;;
51578;SDS011;47998;53.242;6.386;2022-09-21T16:26:05;3.28;;;0.98;;
51578;SDS011;47998;53.242;6.386;2022-09-21T16:28:42;3.90;;;1.10;;
51578;SDS011;47998;53.242;6.386;2022-09-21T16:31:41;4.05;;;0.90;;
51578;SDS011;47998;53.242;6.386;2022-09-21T16:34:20;4.53;;;0.80;;
51578;SDS011;47998;53.242;6.386;2022-09-21T16:37:01;5.35;;;0.60;;
51578;SDS011;47998;53.242;6.386;2022-09-21T16:39:44;5.22;;;0.70;;
51578;SDS011;47998;53.242;6.386;2022-09-21T16:42:11;8.05;;;0.82;;
51578;SDS011;47998;53.242;6.386;2022-09-21T16:44:37;4.07;;;0.60;;
51578;SDS011;47998;53.242;6.386;2022-09-21T16:47:12;7.28;;;0.80;;
51578;SDS011;47998;53.242;6.386;2022-09-21T16:49:40;4.97;;;0.70;;
51578;SDS011;47998;53.242;6.386;2022-09-21T16:52:06;4.00;;;1.17;;
51578;SDS011;47998;53.242;6.386;2022-09-21T16:54:33;2.78;;;0.63;;
51578;SDS011;47998;53.242;6.386;2022-09-21T16:57:02;5.93;;;0.75;;
51578;SDS011;47998;53.242;6.386;2022-09-21T16:59:30;5.90;;;1.05;;
51578;SDS011;47998;53.242;6.386;2022-09-21T17:01:57;8.35;;;0.95;;
51578;SDS011;47998;53.242;6.386;2022-09-21T17:04:28;5.43;;;0.90;;
51578;SDS011;47998;53.242;6.386;2022-09-21T17:06:55;5.15;;;0.60;;
51578;SDS011;47998;53.242;6.386;2022-09-21T17:14:25;2.75;;;0.60;;
51578;SDS011;47998;53.242;6.386;2022-09-21T17:16:55;8.00;;;0.80;;
51578;SDS011;47998;53.242;6.386;2022-09-21T17:19:22;8.38;;;0.80;;
51578;SDS011;47998;53.242;6.386;2022-09-21T17:21:49;4.55;;;0.60;;
51578;SDS011;47998;53.242;6.386;2022-09-21T17:24:15;5.60;;;1.15;;
51578;SDS011;47998;53.242;6.386;2022-09-21T17:26:41;8.77;;;0.93;;
51578;SDS011;47998;53.242;6.386;2022-09-21T17:31:50;7.82;;;0.80;;
51578;SDS011;47998;53.242;6.386;2022-09-21T17:34:22;9.70;;;1.10;;
51578;SDS011;47998;53.242;6.386;2022-09-21T17:36:52;7.70;;;0.90;;
51578;SDS011;47998;53.242;6.386;2022-09-21T17:39:19;6.22;;;0.80;;
51578;SDS011;47998;53.242;6.386;2022-09-21T17:47:14;4.40;;;0.85;;
51578;SDS011;47998;53.242;6.386;2022-09-21T17:49:52;5.10;;;0.90;;
51578;SDS011;47998;53.242;6.386;2022-09-21T17:52:21;5.68;;;0.77;;
51578;SDS011;47998;53.242;6.386;2022-09-21T17:55:07;9.95;;;1.42;;
51578;SDS011;47998;53.242;6.386;2022-09-21T18:00:17;6.57;;;0.75;;
51578;SDS011;47998;53.242;6.386;2022-09-21T18:02:45;5.93;;;0.95;;
51578;SDS011;47998;53.242;6.386;2022-09-21T18:05:27;4.45;;;0.77;;
51578;SDS011;47998;53.242;6.386;2022-09-21T18:07:54;4.85;;;0.80;;
51578;SDS011;47998;53.242;6.386;2022-09-21T18:10:21;7.20;;;1.05;;
51578;SDS011;47998;53.242;6.386;2022-09-21T18:15:35;6.78;;;1.05;;
51578;SDS011;47998;53.242;6.386;2022-09-21T18:20:56;5.95;;;0.90;;
51578;SDS011;47998;53.242;6.386;2022-09-21T18:23:51;7.88;;;1.48;;
51578;SDS011;47998;53.242;6.386;2022-09-21T18:26:32;5.93;;;0.90;;
51578;SDS011;47998;53.242;6.386;2022-09-21T18:28:59;7.55;;;1.13;;
51578;SDS011;47998;53.242;6.386;2022-09-21T18:31:44;7.13;;;1.77;;
51578;SDS011;47998;53.242;6.386;2022-09-21T18:37:11;4.53;;;1.02;;
51578;SDS011;47998;53.242;6.386;2022-09-21T18:39:58;5.72;;;1.50;;
51578;SDS011;47998;53.242;6.386;2022-09-21T18:42:42;5.15;;;1.17;;
51578;SDS011;47998;53.242;6.386;2022-09-21T18:45:28;6.38;;;1.85;;
51578;SDS011;47998;53.242;6.386;2022-09-21T18:51:01;4.47;;;2.05;;
51578;SDS011;47998;53.242;6.386;2022-09-21T18:56:09;7.38;;;2.60;;
51578;SDS011;47998;53.242;6.386;2022-09-21T18:58:36;7.18;;;2.20;;
51578;SDS011;47998;53.242;6.386;2022-09-21T19:01:03;8.07;;;2.72;;
51578;SDS011;47998;53.242;6.386;2022-09-21T19:03:30;10.50;;;2.88;;
51578;SDS011;47998;53.242;6.386;2022-09-21T19:08:44;10.32;;;3.08;;